Time;durP1;ratioP1;P1;durP2;ratioP2;P2;SDS_P1;SDS_P2;PMS_P1;PMS_P2;Temp;Humidity;BMP_temperature;BMP_pressure;BME280_temperature;BME280_humidity;BME280_pressure;Samples;Min_cycle;Max_cycle;Signal;HPM_P1;HPM_P2
2023/09/02 04:02:14;;;;;;;3.43;3.03;;;14.40;97.30;;;;;;5253863;23;20576;-88
2023/09/02 04:05:24;;;;;;;7.10;2.60;;;14.40;97.30;;;;;;4992885;28;20528;-89
2023/09/02 04:08:54;;;;;;;4.63;2.67;;;14.40;97.30;;;;;;4985543;28;20774;-88
2023/09/02 04:11:18;;;;;;;1.43;1.37;;;14.40;97.30;;;;;;4994679;23;21014;-70
2023/09/02 04:13:44;;;;;;;3.00;2.83;;;14.40;97.30;;;;;;4987729;28;20440;-70
2023/09/02 04:16:10;;;;;;;2.50;1.77;;;14.40;97.30;;;;;;4988078;28;20205;-71
2023/09/02 04:18:36;;;;;;;2.17;1.93;;;14.40;97.30;;;;;;4987709;28;20184;-70
2023/09/02 04:21:03;;;;;;;4.50;2.43;;;14.40;97.30;;;;;;4980116;28;20461;-71
2023/09/02 04:23:29;;;;;;;6.10;2.03;;;14.40;97.30;;;;;;4968220;28;20465;-71
2023/09/02 04:25:57;;;;;;;1.77;1.60;;;14.40;97.30;;;;;;4968263;28;20461;-71
2023/09/02 04:28:22;;;;;;;3.80;2.10;;;14.40;97.30;;;;;;4969642;28;20454;-71
2023/09/02 04:30:49;;;;;;;3.63;1.97;;;14.50;97.30;;;;;;4969817;28;20502;-70
2023/09/02 04:33:16;;;;;;;5.90;1.83;;;14.50;97.30;;;;;;4968624;28;20178;-71
2023/09/02 04:35:43;;;;;;;1.37;1.27;;;14.50;97.30;;;;;;4968457;28;20432;-71
2023/09/02 04:38:09;;;;;;;2.40;1.47;;;14.50;97.30;;;;;;4969986;28;20481;-70
2023/09/02 04:40:39;;;;;;;7.10;3.83;;;14.50;97.30;;;;;;4969328;28;20747;-70
2023/09/02 04:43:05;;;;;;;2.07;1.60;;;14.50;97.30;;;;;;4966665;28;20433;-70
2023/09/02 04:45:36;;;;;;;2.60;2.07;;;14.60;97.30;;;;;;4971029;28;20429;-70
2023/09/02 04:48:02;;;;;;;1.43;1.33;;;14.60;97.30;;;;;;4970907;28;20961;-70
2023/09/02 04:50:29;;;;;;;4.60;2.67;;;14.60;97.30;;;;;;4973119;28;20472;-71
2023/09/02 04:52:56;;;;;;;2.30;2.10;;;14.60;97.30;;;;;;4976717;28;20428;-70
2023/09/02 04:55:24;;;;;;;1.90;1.30;;;14.60;97.30;;;;;;4971450;28;20429;-70
2023/09/02 04:57:53;;;;;;;2.70;2.30;;;14.70;97.30;;;;;;4972388;28;20933;-71
2023/09/02 05:00:22;;;;;;;2.57;2.37;;;14.70;97.30;;;;;;4971694;28;20912;-70
2023/09/02 05:02:47;;;;;;;8.00;2.47;;;14.70;97.30;;;;;;4963454;28;20434;-70
2023/09/02 05:05:17;;;;;;;1.90;1.80;;;14.80;97.30;;;;;;4972788;28;20422;-70
2023/09/02 05:07:42;;;;;;;1.57;1.47;;;14.80;97.30;;;;;;4970998;28;20741;-70
2023/09/02 05:10:08;;;;;;;1.23;1.13;;;14.80;97.30;;;;;;4972916;28;20418;-70
2023/09/02 05:12:34;;;;;;;9.90;4.17;;;14.90;97.30;;;;;;4970728;28;20229;-70
2023/09/02 05:15:00;;;;;;;2.13;1.70;;;14.90;97.30;;;;;;4971524;28;20422;-70
2023/09/02 05:17:26;;;;;;;4.23;1.93;;;14.90;97.30;;;;;;4971992;28;20194;-70
2023/09/02 05:19:52;;;;;;;1.63;1.53;;;15.00;97.30;;;;;;4972424;28;20426;-70
2023/09/02 05:22:18;;;;;;;2.43;2.03;;;15.00;97.30;;;;;;4971057;28;20477;-70
2023/09/02 05:24:43;;;;;;;4.57;2.30;;;15.00;97.30;;;;;;4970664;28;20186;-70
2023/09/02 05:27:09;;;;;;;1.37;1.27;;;15.00;97.30;;;;;;4970631;28;20234;-70
2023/09/02 05:29:34;;;;;;;10.67;3.07;;;15.10;97.30;;;;;;4970751;28;20230;-70
2023/09/02 05:32:00;;;;;;;6.80;2.30;;;15.10;97.30;;;;;;4970448;28;20471;-70
2023/09/02 05:34:26;;;;;;;4.40;2.23;;;15.20;97.30;;;;;;4970427;28;20189;-70
2023/09/02 05:36:51;;;;;;;4.30;2.97;;;15.20;97.30;;;;;;4970719;28;20547;-70
2023/09/02 05:39:17;;;;;;;2.80;2.33;;;15.20;97.30;;;;;;4970666;28;20183;-70
2023/09/02 05:41:44;;;;;;;2.20;1.87;;;15.20;97.30;;;;;;4970372;28;20636;-70
2023/09/02 05:44:10;;;;;;;2.03;1.90;;;15.30;97.30;;;;;;4970500;28;20186;-71
2023/09/02 05:46:36;;;;;;;1.77;1.70;;;15.30;97.30;;;;;;4971710;28;20426;-70
2023/09/02 05:49:01;;;;;;;3.83;3.63;;;15.40;97.30;;;;;;4970115;28;20261;-71
2023/09/02 05:51:28;;;;;;;6.50;2.07;;;15.40;97.30;;;;;;4979707;28;20206;-70
2023/09/02 05:53:54;;;;;;;5.60;3.73;;;15.40;97.30;;;;;;4969796;28;20274;-70
2023/09/02 05:56:19;;;;;;;3.13;2.47;;;15.50;97.30;;;;;;4969851;28;21017;-71
2023/09/02 05:58:45;;;;;;;3.27;2.67;;;15.50;97.30;;;;;;4971121;28;20194;-70
2023/09/02 06:01:11;;;;;;;2.40;1.70;;;15.50;97.30;;;;;;4971577;28;20215;-71
2023/09/02 06:03:36;;;;;;;1.47;1.37;;;15.50;97.30;;;;;;4983559;28;20268;-70
2023/09/02 06:06:11;;;;;;;7.00;2.80;;;15.60;97.30;;;;;;4978187;28;20552;-70
2023/09/02 06:08:37;;;;;;;3.30;2.37;;;15.60;97.30;;;;;;4971190;28;20563;-71
2023/09/02 06:11:03;;;;;;;2.90;2.80;;;15.70;97.30;;;;;;4975948;28;20481;-71
2023/09/02 06:13:29;;;;;;;2.87;2.40;;;15.70;97.30;;;;;;4987337;28;20190;-70
2023/09/02 06:16:02;;;;;;;4.50;4.13;;;15.70;97.30;;;;;;4981201;28;20437;-68
2023/09/02 06:18:28;;;;;;;1.70;1.67;;;15.70;97.30;;;;;;4980898;28;20343;-67
2023/09/02 06:20:53;;;;;;;4.23;2.60;;;15.70;97.30;;;;;;4981251;28;20471;-71
2023/09/02 06:23:19;;;;;;;2.50;1.73;;;15.70;97.30;;;;;;4980935;28;20182;-70
2023/09/02 06:25:53;;;;;;;2.80;2.60;;;15.80;97.30;;;;;;4980847;28;20193;-70
2023/09/02 06:28:20;;;;;;;3.10;2.90;;;15.80;97.30;;;;;;4980702;28;20213;-70
2023/09/02 06:30:45;;;;;;;5.47;2.23;;;15.80;97.30;;;;;;4988640;28;20453;-71
2023/09/02 06:33:11;;;;;;;2.23;2.03;;;15.80;97.30;;;;;;4981879;28;20549;-70
2023/09/02 06:35:36;;;;;;;5.67;3.23;;;15.90;97.30;;;;;;4985175;28;20185;-70
2023/09/02 06:38:02;;;;;;;2.67;2.47;;;15.90;97.30;;;;;;4969638;28;20187;-70
2023/09/02 06:40:29;;;;;;;2.20;1.73;;;15.90;97.30;;;;;;4978738;28;20587;-70
2023/09/02 06:42:55;;;;;;;4.40;2.00;;;15.90;97.30;;;;;;4969462;28;20265;-71
2023/09/02 06:45:21;;;;;;;5.73;2.60;;;15.90;97.30;;;;;;4969805;28;20504;-70
2023/09/02 06:47:46;;;;;;;3.73;3.53;;;16.00;97.30;;;;;;4970377;28;20206;-71
2023/09/02 06:50:12;;;;;;;3.00;2.50;;;16.00;97.30;;;;;;4983018;28;20174;-71
2023/09/02 06:52:37;;;;;;;2.53;2.37;;;16.00;97.30;;;;;;4982081;28;20634;-70
2023/09/02 06:55:03;;;;;;;6.30;2.90;;;16.00;97.30;;;;;;4982001;28;20581;-71
2023/09/02 06:57:29;;;;;;;1.83;1.73;;;16.10;97.30;;;;;;4980658;28;20188;-71
2023/09/02 06:59:55;;;;;;;2.53;1.90;;;16.00;97.30;;;;;;4969105;28;20434;-70
2023/09/02 07:02:20;;;;;;;8.13;2.43;;;16.10;97.30;;;;;;4977279;28;20302;-71
2023/09/02 07:04:49;;;;;;;5.20;2.23;;;16.10;97.30;;;;;;4979253;28;20233;-71
2023/09/02 07:07:15;;;;;;;6.50;2.83;;;16.20;97.30;;;;;;4988922;28;20236;-71
2023/09/02 07:09:40;;;;;;;2.83;2.30;;;16.20;97.30;;;;;;4972382;28;20453;-71
2023/09/02 07:12:06;;;;;;;2.50;2.30;;;16.30;97.30;;;;;;4970100;28;20706;-70
2023/09/02 07:14:31;;;;;;;6.03;1.97;;;16.30;97.30;;;;;;4968340;28;20189;-71
2023/09/02 07:16:57;;;;;;;2.10;1.93;;;16.30;97.30;;;;;;4969008;28;20178;-71
2023/09/02 07:19:24;;;;;;;1.93;1.83;;;16.30;97.30;;;;;;4952990;28;20663;-71
2023/09/02 07:21:49;;;;;;;3.23;2.70;;;16.40;97.30;;;;;;4968716;28;20626;-71
2023/09/02 07:24:15;;;;;;;4.10;2.33;;;16.40;97.30;;;;;;4968850;28;20461;-71
2023/09/02 07:26:41;;;;;;;5.30;3.60;;;16.40;97.30;;;;;;4968829;28;20186;-71
2023/09/02 07:29:07;;;;;;;3.10;1.70;;;16.40;97.30;;;;;;4968887;28;20488;-71
2023/09/02 07:31:33;;;;;;;4.73;2.03;;;16.40;97.30;;;;;;4952674;28;20678;-71
2023/09/02 07:33:58;;;;;;;2.47;2.27;;;16.40;97.30;;;;;;4968966;28;20635;-71
2023/09/02 07:36:24;;;;;;;2.20;2.00;;;16.50;97.30;;;;;;4968962;28;20428;-71
2023/09/02 07:38:49;;;;;;;3.70;2.80;;;16.50;97.30;;;;;;4969153;28;20209;-72
2023/09/02 07:41:15;;;;;;;7.63;3.00;;;16.60;97.30;;;;;;4968699;28;20217;-71
2023/09/02 07:43:41;;;;;;;7.73;2.70;;;16.70;97.30;;;;;;4971575;28;20685;-73
2023/09/02 07:46:06;;;;;;;4.00;2.90;;;16.70;97.30;;;;;;4969349;28;20182;-73
2023/09/02 07:48:32;;;;;;;4.20;2.37;;;16.80;97.30;;;;;;4965755;28;20585;-72
2023/09/02 07:50:58;;;;;;;5.33;3.37;;;16.80;97.30;;;;;;4974866;28;20202;-73
2023/09/02 07:53:23;;;;;;;3.37;2.77;;;16.80;97.30;;;;;;4977138;28;20189;-73
2023/09/02 07:55:50;;;;;;;4.67;3.27;;;16.90;97.30;;;;;;4976627;28;20185;-73
2023/09/02 07:58:16;;;;;;;3.50;2.63;;;17.00;97.30;;;;;;4969135;28;20241;-70
2023/09/02 08:00:42;;;;;;;8.53;3.20;;;17.00;97.30;;;;;;4978642;28;20831;-72
2023/09/02 08:03:07;;;;;;;7.47;3.93;;;17.00;97.30;;;;;;4977449;28;20197;-72
2023/09/02 08:05:38;;;;;;;2.40;1.87;;;17.10;97.30;;;;;;4972474;28;20422;-73
2023/09/02 08:08:04;;;;;;;5.37;2.60;;;17.10;97.30;;;;;;4972042;28;20210;-73
2023/09/02 08:10:30;;;;;;;2.40;2.20;;;17.10;97.30;;;;;;4978983;28;20441;-73
2023/09/02 08:12:56;;;;;;;1.83;1.73;;;17.20;97.30;;;;;;4970868;28;20406;-72
2023/09/02 08:15:22;;;;;;;9.30;2.43;;;17.20;97.30;;;;;;4977197;28;20170;-71
2023/09/02 08:17:51;;;;;;;3.00;2.07;;;17.30;97.30;;;;;;4980000;28;20170;-72
2023/09/02 08:20:17;;;;;;;8.37;5.63;;;17.30;97.30;;;;;;4981084;28;20268;-73
2023/09/02 08:22:43;;;;;;;4.33;2.23;;;17.40;97.30;;;;;;4977242;28;20827;-70
2023/09/02 08:25:12;;;;;;;2.83;2.17;;;17.40;97.30;;;;;;4975391;28;20186;-72
2023/09/02 08:27:38;;;;;;;2.60;2.40;;;17.40;97.30;;;;;;4985014;28;20496;-72
2023/09/02 08:30:04;;;;;;;4.07;2.77;;;17.50;97.30;;;;;;4980439;28;20460;-72
2023/09/02 08:32:31;;;;;;;4.80;2.77;;;17.60;97.30;;;;;;4973761;28;20182;-71
2023/09/02 08:34:57;;;;;;;4.33;2.57;;;17.60;97.30;;;;;;4969735;28;20422;-69
2023/09/02 08:37:22;;;;;;;7.97;2.27;;;17.70;97.30;;;;;;4974152;28;20851;-72
2023/09/02 08:39:48;;;;;;;3.57;2.27;;;17.70;97.30;;;;;;4970740;28;20307;-73
2023/09/02 08:42:19;;;;;;;4.47;2.00;;;17.80;97.30;;;;;;4969044;28;20210;-71
2023/09/02 08:44:47;;;;;;;4.23;2.40;;;17.80;97.30;;;;;;4971484;28;20201;-70
2023/09/02 08:47:16;;;;;;;3.97;2.70;;;17.80;97.30;;;;;;4971961;28;20557;-70
2023/09/02 08:49:41;;;;;;;7.70;4.03;;;17.90;97.30;;;;;;4971064;28;20421;-70
2023/09/02 08:52:08;;;;;;;3.60;3.17;;;18.00;97.30;;;;;;4970898;28;21087;-69
2023/09/02 08:54:34;;;;;;;5.23;2.60;;;18.10;97.30;;;;;;4970832;28;20182;-69
2023/09/02 08:57:01;;;;;;;2.40;2.20;;;18.10;97.30;;;;;;4971928;28;20949;-69
2023/09/02 08:59:28;;;;;;;3.50;2.67;;;18.20;97.30;;;;;;4972029;28;20959;-70
2023/09/02 09:01:56;;;;;;;2.63;2.40;;;18.30;97.30;;;;;;4970430;28;20458;-69
2023/09/02 09:04:22;;;;;;;1.00;0.97;;;18.40;97.30;;;;;;4970704;28;20432;-70
2023/09/02 09:06:48;;;;;;;4.90;2.67;;;18.50;97.30;;;;;;4972590;28;20505;-70
2023/09/02 09:09:16;;;;;;;2.50;2.30;;;18.50;97.30;;;;;;4973166;28;20443;-69
2023/09/02 09:11:43;;;;;;;1.87;1.40;;;18.60;97.30;;;;;;4971868;28;20473;-70
2023/09/02 09:14:16;;;;;;;2.80;2.10;;;18.70;97.30;;;;;;4972087;28;20413;-66
2023/09/02 09:16:43;;;;;;;1.67;1.57;;;18.70;97.30;;;;;;4972387;28;20545;-70
2023/09/02 09:19:09;;;;;;;2.47;2.30;;;18.80;97.30;;;;;;4971335;28;20434;-70
2023/09/02 09:21:34;;;;;;;8.73;2.03;;;18.90;97.30;;;;;;4970986;28;20592;-70
2023/09/02 09:24:01;;;;;;;2.00;1.53;;;19.00;97.30;;;;;;4972208;28;20186;-68
2023/09/02 09:26:27;;;;;;;1.57;1.27;;;19.10;97.30;;;;;;4972097;28;20350;-69
2023/09/02 09:28:58;;;;;;;1.80;1.50;;;19.10;97.30;;;;;;4971616;28;20470;-69
2023/09/02 09:31:25;;;;;;;1.20;1.10;;;19.10;97.30;;;;;;4970909;28;20442;-67
2023/09/02 09:33:55;;;;;;;1.43;1.37;;;19.20;97.30;;;;;;4972430;28;20497;-67
2023/09/02 09:36:22;;;;;;;3.10;1.50;;;19.30;97.30;;;;;;4970964;28;20430;-68
2023/09/02 09:38:48;;;;;;;1.93;1.20;;;19.40;97.30;;;;;;4969259;28;20433;-67
2023/09/02 09:41:14;;;;;;;0.97;0.93;;;19.50;97.30;;;;;;4970349;28;20449;-66
2023/09/02 09:43:40;;;;;;;1.20;1.03;;;19.60;97.30;;;;;;4970637;28;21012;-69
2023/09/02 09:46:05;;;;;;;1.20;1.13;;;19.60;97.30;;;;;;4966409;28;20198;-69
2023/09/02 09:48:31;;;;;;;1.77;1.10;;;19.70;97.30;;;;;;4966719;28;20217;-67
2023/09/02 09:50:56;;;;;;;1.23;1.13;;;19.70;97.30;;;;;;4971333;28;20710;-68
2023/09/02 09:53:24;;;;;;;1.17;1.07;;;19.70;97.30;;;;;;4972160;28;20358;-68
2023/09/02 09:55:50;;;;;;;0.90;0.80;;;19.70;97.30;;;;;;4971602;28;20174;-68
2023/09/02 09:58:22;;;;;;;3.47;1.63;;;19.70;97.30;;;;;;4970215;28;21008;-69
2023/09/02 10:00:52;;;;;;;0.83;0.77;;;19.60;97.30;;;;;;4969874;28;20203;-69
2023/09/02 10:03:28;;;;;;;0.80;0.80;;;19.60;97.30;;;;;;4970384;28;20972;-68
2023/09/02 10:05:58;;;;;;;1.30;1.20;;;19.60;97.30;;;;;;4969908;28;20539;-69
2023/09/02 10:08:24;;;;;;;0.80;0.80;;;19.70;97.30;;;;;;4970191;28;20453;-68
2023/09/02 10:10:49;;;;;;;2.30;1.33;;;19.70;97.30;;;;;;4970720;28;20474;-68
2023/09/02 10:13:15;;;;;;;0.90;0.80;;;19.80;97.30;;;;;;4970239;28;20209;-68
2023/09/02 10:15:42;;;;;;;1.83;1.07;;;19.90;97.30;;;;;;4995998;23;20234;-88
2023/09/02 10:18:08;;;;;;;3.23;1.10;;;20.00;97.30;;;;;;4991174;28;20189;-88
2023/09/02 10:20:35;;;;;;;1.00;0.90;;;20.00;97.30;;;;;;4991499;28;20409;-88
2023/09/02 10:23:10;;;;;;;2.10;1.10;;;20.10;97.30;;;;;;4991255;28;20193;-88
2023/09/02 10:25:53;;;;;;;1.37;1.27;;;20.20;97.30;;;;;;4979113;28;20580;-88
2023/09/02 10:28:36;;;;;;;0.90;0.90;;;20.10;97.30;;;;;;4965197;28;20461;-88
2023/09/02 10:31:06;;;;;;;1.60;1.27;;;20.20;97.30;;;;;;4971472;28;20461;-88
2023/09/02 10:33:38;;;;;;;1.67;1.50;;;20.20;97.30;;;;;;4971726;28;20429;-88
2023/09/02 10:36:06;;;;;;;1.27;1.17;;;20.30;97.30;;;;;;4971539;28;20444;-88
2023/09/02 10:38:40;;;;;;;2.53;1.30;;;20.40;97.30;;;;;;4973163;28;20513;-89
2023/09/02 10:41:14;;;;;;;1.13;1.10;;;20.50;97.30;;;;;;4971635;28;20433;-88
2023/09/02 10:43:40;;;;;;;6.50;1.30;;;20.50;97.30;;;;;;4971715;28;20428;-87
2023/09/02 10:46:07;;;;;;;1.20;1.10;;;20.40;97.30;;;;;;4971469;28;20527;-88
2023/09/02 10:48:35;;;;;;;2.60;2.00;;;20.40;97.30;;;;;;4971717;28;20461;-88
2023/09/02 10:51:02;;;;;;;2.07;1.40;;;20.40;97.30;;;;;;4970846;28;20484;-87
2023/09/02 10:53:53;;;;;;;1.03;1.00;;;20.40;97.30;;;;;;4973633;28;20479;-88
2023/09/02 10:56:35;;;;;;;2.30;1.50;;;20.40;97.30;;;;;;4971720;28;20447;-88
2023/09/02 10:59:03;;;;;;;2.23;1.90;;;20.50;97.30;;;;;;4971273;28;20508;-88
2023/09/02 11:01:49;;;;;;;1.63;1.60;;;20.60;97.30;;;;;;4971559;28;20433;-88
2023/09/02 11:04:40;;;;;;;3.10;1.77;;;20.70;97.30;;;;;;4963553;28;20432;-88
2023/09/02 11:07:22;;;;;;;3.53;1.70;;;20.90;97.30;;;;;;4972481;28;20557;-88
2023/09/02 11:09:58;;;;;;;1.97;1.50;;;21.00;97.30;;;;;;4974149;28;20448;-88
2023/09/02 11:12:24;;;;;;;4.30;2.03;;;21.10;97.30;;;;;;4977192;28;20422;-88
2023/09/02 11:15:08;;;;;;;2.07;1.70;;;21.10;97.30;;;;;;4986391;28;20821;-85
2023/09/02 11:17:37;;;;;;;4.00;1.77;;;21.10;97.30;;;;;;4974404;28;20887;-89
2023/09/02 11:20:11;;;;;;;3.10;2.00;;;21.10;97.30;;;;;;4976012;28;20418;-88
2023/09/02 11:22:54;;;;;;;1.97;1.50;;;21.10;97.30;;;;;;4977837;28;20413;-88
2023/09/02 11:25:24;;;;;;;1.40;1.30;;;21.10;97.30;;;;;;4977156;28;20500;-87
2023/09/02 11:27:50;;;;;;;1.37;1.27;;;21.10;97.30;;;;;;4979791;28;20462;-88
2023/09/02 11:30:16;;;;;;;1.10;1.00;;;21.10;97.30;;;;;;4977694;28;20428;-87
2023/09/02 11:32:45;;;;;;;4.20;2.13;;;21.00;97.30;;;;;;4980432;28;20656;-88
2023/09/02 11:35:16;;;;;;;3.53;1.90;;;21.00;97.30;;;;;;4979763;28;20438;-88
2023/09/02 11:37:41;;;;;;;2.10;1.70;;;21.10;97.30;;;;;;4978885;28;20424;-88
2023/09/02 11:40:18;;;;;;;1.80;1.70;;;21.20;97.30;;;;;;4980397;28;20433;-88
2023/09/02 11:43:07;;;;;;;3.27;1.97;;;21.30;97.30;;;;;;4967771;28;20190;-88
2023/09/02 11:45:35;;;;;;;1.27;1.23;;;21.40;97.30;;;;;;4965935;28;20457;-88
2023/09/02 11:48:06;;;;;;;1.70;1.60;;;21.50;97.30;;;;;;4970700;28;20893;-87
2023/09/02 11:50:31;;;;;;;1.53;1.23;;;21.60;97.30;;;;;;4972205;28;20437;-88
2023/09/02 11:52:58;;;;;;;1.30;1.20;;;21.50;97.30;;;;;;4970311;28;20504;-88
2023/09/02 11:55:25;;;;;;;1.80;1.70;;;21.60;97.30;;;;;;4970883;28;20680;-87
2023/09/02 11:57:51;;;;;;;1.27;1.23;;;21.50;97.30;;;;;;4970619;28;20536;-88
2023/09/02 12:00:22;;;;;;;1.30;1.20;;;21.60;97.30;;;;;;4970926;28;20426;-88
2023/09/02 12:02:48;;;;;;;1.10;1.07;;;21.60;97.30;;;;;;4970479;28;20838;-88
2023/09/02 12:05:15;;;;;;;3.13;1.53;;;21.70;97.30;;;;;;4971714;28;20814;-88
2023/09/02 12:07:46;;;;;;;1.10;1.10;;;21.70;97.30;;;;;;4970857;28;20461;-87
2023/09/02 12:10:14;;;;;;;1.37;1.30;;;21.80;97.30;;;;;;4970797;28;20429;-88
2023/09/02 12:12:46;;;;;;;3.33;2.33;;;22.00;97.30;;;;;;4971465;28;20433;-88
2023/09/02 12:15:14;;;;;;;1.70;1.57;;;22.00;97.30;;;;;;4968861;28;20464;-88
2023/09/02 12:17:40;;;;;;;3.47;2.13;;;22.10;97.30;;;;;;4978371;28;20474;-87
2023/09/02 12:20:08;;;;;;;1.33;1.23;;;22.10;97.30;;;;;;4971745;28;20437;-88
2023/09/02 12:22:35;;;;;;;1.07;1.07;;;22.10;97.20;;;;;;4972160;28;20421;-87
2023/09/02 12:25:13;;;;;;;1.67;1.20;;;22.10;97.30;;;;;;4970712;28;20456;-87
2023/09/02 12:27:38;;;;;;;1.53;1.53;;;22.10;95.30;;;;;;4970982;28;20469;-87
2023/09/02 12:30:05;;;;;;;1.70;1.50;;;22.10;96.40;;;;;;4971715;28;20796;-88
2023/09/02 12:32:30;;;;;;;2.80;1.50;;;22.10;96.50;;;;;;4970723;28;20197;-88
2023/09/02 12:34:56;;;;;;;1.60;1.50;;;22.00;96.10;;;;;;4970908;28;20449;-88
2023/09/02 12:37:22;;;;;;;3.10;1.97;;;22.00;96.90;;;;;;4980731;28;20186;-87
2023/09/02 12:39:49;;;;;;;2.07;1.93;;;22.00;97.00;;;;;;4976339;28;20517;-87
2023/09/02 12:42:18;;;;;;;2.70;1.80;;;22.00;97.30;;;;;;4970366;28;20521;-88
2023/09/02 12:44:51;;;;;;;1.63;1.53;;;22.00;97.30;;;;;;4970272;28;20679;-89
2023/09/02 12:47:25;;;;;;;1.63;1.63;;;22.00;97.30;;;;;;4969971;28;20896;-88
2023/09/02 12:49:55;;;;;;;2.47;2.27;;;22.00;97.20;;;;;;4974993;28;20512;-89
2023/09/02 12:52:27;;;;;;;1.47;1.37;;;22.00;97.00;;;;;;4972333;28;20479;-89
2023/09/02 12:54:54;;;;;;;1.70;1.60;;;22.00;97.30;;;;;;4966845;28;20533;-87
2023/09/02 12:57:21;;;;;;;1.33;1.23;;;22.00;97.30;;;;;;4984752;28;20454;-86
2023/09/02 12:59:46;;;;;;;1.20;1.10;;;21.90;97.30;;;;;;4970120;28;20477;-87
2023/09/02 13:02:12;;;;;;;1.63;1.53;;;21.90;97.30;;;;;;4972834;28;20418;-87
2023/09/02 13:04:38;;;;;;;1.97;1.50;;;21.90;96.70;;;;;;4972137;28;20241;-86
2023/09/02 13:07:03;;;;;;;1.50;1.40;;;21.90;96.60;;;;;;4975457;28;20258;-86
2023/09/02 13:09:30;;;;;;;1.73;1.37;;;21.90;96.40;;;;;;4976039;28;20532;-87
2023/09/02 13:11:56;;;;;;;1.40;1.30;;;21.90;96.80;;;;;;4975592;28;20189;-86
2023/09/02 13:14:22;;;;;;;1.17;1.07;;;21.90;97.30;;;;;;4967626;28;20422;-87
2023/09/02 13:16:48;;;;;;;1.17;1.07;;;21.90;97.30;;;;;;4975418;28;20681;-86
2023/09/02 13:19:13;;;;;;;1.50;1.40;;;22.00;97.30;;;;;;4974032;28;20432;-87
2023/09/02 13:21:39;;;;;;;1.33;1.23;;;22.00;97.00;;;;;;4974920;28;20656;-86
2023/09/02 13:24:05;;;;;;;1.73;1.60;;;22.10;97.30;;;;;;4972980;28;20182;-87
2023/09/02 13:26:30;;;;;;;1.30;1.20;;;22.20;97.30;;;;;;4973405;28;20198;-87
2023/09/02 13:29:01;;;;;;;5.50;1.50;;;22.20;97.30;;;;;;4973027;28;20479;-87
2023/09/02 13:31:27;;;;;;;1.73;1.23;;;22.30;97.20;;;;;;4980838;28;20222;-87
2023/09/02 13:33:52;;;;;;;3.63;2.63;;;22.30;96.60;;;;;;4973094;28;20457;-87
2023/09/02 13:36:18;;;;;;;1.07;1.00;;;22.30;96.60;;;;;;4972200;28;20412;-87
2023/09/02 13:38:43;;;;;;;1.33;1.30;;;22.30;95.90;;;;;;4973347;28;20233;-86
2023/09/02 13:41:09;;;;;;;1.40;1.20;;;22.30;96.20;;;;;;4972946;28;20182;-87
2023/09/02 13:43:35;;;;;;;1.43;1.37;;;22.30;95.90;;;;;;4973355;28;20178;-87
2023/09/02 13:46:05;;;;;;;1.47;1.37;;;22.30;96.70;;;;;;4975189;28;20438;-86
2023/09/02 13:48:30;;;;;;;1.20;1.10;;;22.30;95.60;;;;;;4974092;28;20274;-87
2023/09/02 13:51:00;;;;;;;1.37;1.27;;;22.30;95.90;;;;;;4975905;28;20462;-86
2023/09/02 13:53:26;;;;;;;1.20;1.10;;;22.40;95.70;;;;;;4968439;28;20182;-87
2023/09/02 13:55:52;;;;;;;1.40;1.30;;;22.50;95.60;;;;;;4994040;28;20442;-88
2023/09/02 13:58:19;;;;;;;2.93;1.73;;;22.50;95.30;;;;;;4996175;28;20438;-87
2023/09/02 14:00:46;;;;;;;2.23;1.43;;;22.50;95.10;;;;;;4996736;28;20414;-88
2023/09/02 14:03:20;;;;;;;2.80;2.17;;;22.60;95.30;;;;;;4975538;28;20859;-87
2023/09/02 14:05:47;;;;;;;1.53;1.40;;;22.70;95.80;;;;;;4972302;28;20450;-87
2023/09/02 14:08:17;;;;;;;0.90;0.80;;;22.70;96.30;;;;;;4972342;28;20500;-87
2023/09/02 14:10:44;;;;;;;2.20;1.10;;;22.70;95.30;;;;;;4972258;28;20463;-87
2023/09/02 14:13:10;;;;;;;1.60;0.90;;;22.70;94.50;;;;;;4972195;28;20452;-86
2023/09/02 14:15:36;;;;;;;1.33;1.00;;;22.70;94.70;;;;;;4971060;28;20465;-87
2023/09/02 14:18:02;;;;;;;1.43;1.40;;;22.70;95.20;;;;;;4971988;28;20448;-85
2023/09/02 14:20:28;;;;;;;2.17;1.80;;;22.70;95.10;;;;;;4972372;28;20429;-86
2023/09/02 14:22:53;;;;;;;1.80;1.40;;;22.70;94.40;;;;;;4972214;28;20481;-87
2023/09/02 14:25:19;;;;;;;1.47;1.43;;;22.70;95.00;;;;;;4976116;28;20572;-85
2023/09/02 14:27:44;;;;;;;1.30;1.20;;;22.70;94.90;;;;;;4973911;28;20353;-87
2023/09/02 14:30:11;;;;;;;1.07;0.97;;;22.70;95.50;;;;;;4973290;28;20186;-87
2023/09/02 14:32:36;;;;;;;0.90;0.90;;;22.70;95.00;;;;;;4972336;28;20199;-87
2023/09/02 14:35:02;;;;;;;1.00;0.90;;;22.60;94.80;;;;;;4972528;28;20613;-87
2023/09/02 14:37:30;;;;;;;1.57;1.30;;;22.60;94.50;;;;;;4976823;28;20190;-87
2023/09/02 14:39:56;;;;;;;1.10;1.00;;;22.60;94.60;;;;;;4971747;28;20210;-87
2023/09/02 14:42:21;;;;;;;2.80;1.47;;;22.50;95.20;;;;;;4970584;28;20948;-87
2023/09/02 14:44:47;;;;;;;1.40;1.10;;;22.50;95.30;;;;;;4971944;28;20285;-87
2023/09/02 14:47:13;;;;;;;0.90;0.80;;;22.50;95.60;;;;;;4970750;28;20229;-86
2023/09/02 14:49:38;;;;;;;1.70;1.10;;;22.50;95.30;;;;;;4973097;28;20179;-86
2023/09/02 14:52:05;;;;;;;1.20;1.10;;;22.50;95.30;;;;;;4974063;28;20241;-85
2023/09/02 14:54:32;;;;;;;1.10;1.10;;;22.50;95.10;;;;;;4971255;28;20490;-87
2023/09/02 14:56:58;;;;;;;1.00;0.90;;;22.50;95.20;;;;;;4971991;28;20429;-87
2023/09/02 14:59:24;;;;;;;1.17;1.07;;;22.50;95.50;;;;;;4971016;28;20492;-87
2023/09/02 15:01:50;;;;;;;1.10;1.00;;;22.50;95.60;;;;;;4970054;28;20183;-87
2023/09/02 15:04:18;;;;;;;1.27;0.93;;;22.60;95.50;;;;;;4970324;28;20797;-87
2023/09/02 15:06:44;;;;;;;1.40;1.30;;;22.60;95.10;;;;;;4970050;28;20446;-86
2023/09/02 15:09:10;;;;;;;1.00;0.97;;;22.70;95.00;;;;;;4970045;28;20496;-87
2023/09/02 15:11:38;;;;;;;1.13;1.10;;;22.80;95.50;;;;;;4970260;28;20191;-87
2023/09/02 15:14:05;;;;;;;1.00;0.90;;;22.90;94.80;;;;;;4970444;28;20427;-86
2023/09/02 15:16:34;;;;;;;1.57;1.53;;;22.90;94.90;;;;;;4963022;28;20468;-87
2023/09/02 15:19:01;;;;;;;1.20;1.00;;;22.90;94.50;;;;;;4971381;28;20440;-87
2023/09/02 15:21:32;;;;;;;2.20;1.43;;;22.80;94.90;;;;;;4972241;28;20794;-87
2023/09/02 15:24:02;;;;;;;1.00;0.90;;;22.80;95.20;;;;;;4971346;28;20437;-87
2023/09/02 15:26:28;;;;;;;0.77;0.73;;;22.90;95.50;;;;;;4970901;28;20856;-86
2023/09/02 15:28:53;;;;;;;1.10;1.00;;;22.80;94.80;;;;;;4970641;28;20556;-87
2023/09/02 15:31:19;;;;;;;1.57;1.20;;;22.80;94.90;;;;;;4970832;28;20210;-87
2023/09/02 15:33:46;;;;;;;1.63;1.10;;;22.80;95.50;;;;;;4971280;28;20183;-86
2023/09/02 15:36:18;;;;;;;1.47;1.43;;;23.10;96.10;;;;;;4972098;28;20219;-87
2023/09/02 15:38:44;;;;;;;1.20;1.10;;;23.40;95.50;;;;;;4971221;28;20438;-87
2023/09/02 15:41:09;;;;;;;0.93;0.83;;;23.70;95.10;;;;;;4970925;28;20871;-87
2023/09/02 15:43:38;;;;;;;2.10;1.13;;;23.90;94.30;;;;;;4970906;28;20664;-88
2023/09/02 15:46:07;;;;;;;1.73;0.97;;;24.20;93.90;;;;;;4971025;28;20198;-87
2023/09/02 15:48:33;;;;;;;1.17;1.07;;;24.40;93.20;;;;;;4962783;28;20486;-88
2023/09/02 15:50:59;;;;;;;1.10;1.10;;;24.60;92.30;;;;;;4973549;28;20970;-87
2023/09/02 15:53:25;;;;;;;1.00;0.90;;;24.80;91.50;;;;;;4972927;28;20459;-87
2023/09/02 15:55:54;;;;;;;1.13;1.13;;;24.90;91.20;;;;;;4970566;28;20719;-87
2023/09/02 15:58:19;;;;;;;2.53;0.90;;;25.00;90.80;;;;;;4970684;28;20453;-87
2023/09/02 16:00:45;;;;;;;1.00;0.90;;;25.10;90.50;;;;;;4970853;28;20430;-87
2023/09/02 16:03:10;;;;;;;0.80;0.70;;;25.10;89.20;;;;;;4970604;28;20175;-87
2023/09/02 16:05:36;;;;;;;0.90;0.80;;;25.10;88.80;;;;;;4970705;28;20226;-87
2023/09/02 16:08:02;;;;;;;1.20;1.07;;;25.10;88.80;;;;;;4970831;28;20206;-87
2023/09/02 16:10:28;;;;;;;1.43;1.40;;;25.10;89.30;;;;;;4970058;28;20178;-87
2023/09/02 16:12:53;;;;;;;0.80;0.70;;;25.10;89.70;;;;;;4970425;28;20437;-87
2023/09/02 16:15:21;;;;;;;1.67;1.20;;;25.20;89.60;;;;;;5014023;23;20697;-87
2023/09/02 16:17:46;;;;;;;0.70;0.70;;;25.30;90.00;;;;;;4988887;28;20182;-87
2023/09/02 16:20:12;;;;;;;1.27;1.10;;;25.30;90.50;;;;;;4990003;28;20966;-86
2023/09/02 16:22:39;;;;;;;2.00;1.43;;;25.30;90.30;;;;;;4989729;28;20660;-87
2023/09/02 16:25:05;;;;;;;1.10;1.00;;;25.30;90.40;;;;;;4987255;28;20199;-87
2023/09/02 16:27:31;;;;;;;0.80;0.70;;;25.30;91.30;;;;;;4970175;28;20480;-87
2023/09/02 16:29:56;;;;;;;1.47;1.47;;;25.30;90.10;;;;;;4971623;28;20521;-87
2023/09/02 16:32:22;;;;;;;1.33;1.23;;;25.20;90.30;;;;;;4974031;28;20269;-87
2023/09/02 16:34:47;;;;;;;0.90;0.90;;;25.20;90.00;;;;;;4970581;28;20675;-87
2023/09/02 16:37:15;;;;;;;1.60;1.20;;;25.20;89.50;;;;;;4970658;28;20439;-86
2023/09/02 16:39:41;;;;;;;1.00;0.90;;;25.20;90.20;;;;;;4972399;28;20186;-86
2023/09/02 16:42:06;;;;;;;0.90;0.80;;;25.20;89.90;;;;;;4977279;28;20428;-86
2023/09/02 16:44:35;;;;;;;1.33;1.30;;;25.20;90.60;;;;;;4975931;28;20179;-85
2023/09/02 16:47:01;;;;;;;1.33;1.23;;;25.10;89.60;;;;;;4974495;28;20627;-86
2023/09/02 16:49:30;;;;;;;1.10;1.00;;;24.80;89.90;;;;;;4973959;28;20453;-86
2023/09/02 16:52:05;;;;;;;1.83;1.50;;;24.60;90.50;;;;;;4974371;28;20269;-87